sensor_id;sensor_type;location;lat;lon;timestamp;temperature;humidity
33863;DHT22;20158;51.436;-2.742;2022-08-19T00:00:36;22.70;69.40
33863;DHT22;20158;51.436;-2.742;2022-08-19T00:03:03;22.70;69.50
33863;DHT22;20158;51.436;-2.742;2022-08-19T00:05:29;22.60;69.40
33863;DHT22;20158;51.436;-2.742;2022-08-19T00:07:57;22.60;69.50
33863;DHT22;20158;51.436;-2.742;2022-08-19T00:10:23;22.70;69.80
33863;DHT22;20158;51.436;-2.742;2022-08-19T00:12:50;22.60;69.70
33863;DHT22;20158;51.436;-2.742;2022-08-19T00:15:20;22.60;69.70
33863;DHT22;20158;51.436;-2.742;2022-08-19T00:17:46;22.60;69.80
33863;DHT22;20158;51.436;-2.742;2022-08-19T00:20:15;22.60;69.80
33863;DHT22;20158;51.436;-2.742;2022-08-19T00:22:44;22.60;70.40
33863;DHT22;20158;51.436;-2.742;2022-08-19T00:25:11;22.60;69.90
33863;DHT22;20158;51.436;-2.742;2022-08-19T00:27:37;22.50;69.80
33863;DHT22;20158;51.436;-2.742;2022-08-19T00:30:05;22.50;69.90
33863;DHT22;20158;51.436;-2.742;2022-08-19T00:32:31;22.50;69.90
33863;DHT22;20158;51.436;-2.742;2022-08-19T00:34:58;22.50;70.00
33863;DHT22;20158;51.436;-2.742;2022-08-19T00:37:24;22.50;70.00
33863;DHT22;20158;51.436;-2.742;2022-08-19T00:39:52;22.50;70.10
33863;DHT22;20158;51.436;-2.742;2022-08-19T00:42:20;22.50;70.10
33863;DHT22;20158;51.436;-2.742;2022-08-19T00:44:46;22.50;70.20
33863;DHT22;20158;51.436;-2.742;2022-08-19T00:47:12;22.50;70.20
33863;DHT22;20158;51.436;-2.742;2022-08-19T00:49:47;22.40;70.10
33863;DHT22;20158;51.436;-2.742;2022-08-19T00:52:23;22.40;70.20
33863;DHT22;20158;51.436;-2.742;2022-08-19T00:54:50;22.40;70.20
33863;DHT22;20158;51.436;-2.742;2022-08-19T00:57:18;22.40;70.20
33863;DHT22;20158;51.436;-2.742;2022-08-19T00:59:51;22.40;70.30
33863;DHT22;20158;51.436;-2.742;2022-08-19T01:02:20;22.40;70.40
33863;DHT22;20158;51.436;-2.742;2022-08-19T01:04:46;22.30;70.20
33863;DHT22;20158;51.436;-2.742;2022-08-19T01:07:12;22.30;70.30
33863;DHT22;20158;51.436;-2.742;2022-08-19T01:09:38;22.30;70.30
33863;DHT22;20158;51.436;-2.742;2022-08-19T01:12:04;22.30;70.40
33863;DHT22;20158;51.436;-2.742;2022-08-19T01:14:32;22.30;70.50
33863;DHT22;20158;51.436;-2.742;2022-08-19T01:16:58;22.30;70.50
33863;DHT22;20158;51.436;-2.742;2022-08-19T01:19:33;22.30;70.60
33863;DHT22;20158;51.436;-2.742;2022-08-19T01:22:06;22.30;70.60
33863;DHT22;20158;51.436;-2.742;2022-08-19T01:24:34;22.20;70.50
33863;DHT22;20158;51.436;-2.742;2022-08-19T01:27:04;22.20;70.50
33863;DHT22;20158;51.436;-2.742;2022-08-19T01:29:30;22.20;70.50
33863;DHT22;20158;51.436;-2.742;2022-08-19T01:31:57;22.20;70.60
33863;DHT22;20158;51.436;-2.742;2022-08-19T01:34:23;22.10;70.40
33863;DHT22;20158;51.436;-2.742;2022-08-19T01:36:50;22.10;70.40
33863;DHT22;20158;51.436;-2.742;2022-08-19T01:39:22;22.10;70.50
33863;DHT22;20158;51.436;-2.742;2022-08-19T01:41:49;22.10;70.60
33863;DHT22;20158;51.436;-2.742;2022-08-19T01:44:16;22.10;70.50
33863;DHT22;20158;51.436;-2.742;2022-08-19T01:46:47;22.10;70.60
33863;DHT22;20158;51.436;-2.742;2022-08-19T01:49:14;22.10;70.60
33863;DHT22;20158;51.436;-2.742;2022-08-19T01:51:41;22.10;70.60
33863;DHT22;20158;51.436;-2.742;2022-08-19T01:54:08;22.10;70.70
33863;DHT22;20158;51.436;-2.742;2022-08-19T01:56:35;22.00;70.50
33863;DHT22;20158;51.436;-2.742;2022-08-19T01:59:06;22.00;70.50
33863;DHT22;20158;51.436;-2.742;2022-08-19T02:01:34;22.00;70.60
33863;DHT22;20158;51.436;-2.742;2022-08-19T02:04:00;22.00;70.60
33863;DHT22;20158;51.436;-2.742;2022-08-19T02:06:30;21.90;70.40
33863;DHT22;20158;51.436;-2.742;2022-08-19T02:08:56;21.90;71.00
33863;DHT22;20158;51.436;-2.742;2022-08-19T02:11:27;21.90;71.10
33863;DHT22;20158;51.436;-2.742;2022-08-19T02:13:55;21.90;70.60
33863;DHT22;20158;51.436;-2.742;2022-08-19T02:16:21;21.80;70.40
33863;DHT22;20158;51.436;-2.742;2022-08-19T02:18:47;21.80;70.40
33863;DHT22;20158;51.436;-2.742;2022-08-19T02:21:19;21.80;70.50
33863;DHT22;20158;51.436;-2.742;2022-08-19T02:23:45;21.80;70.50
33863;DHT22;20158;51.436;-2.742;2022-08-19T02:26:12;21.80;70.50
33863;DHT22;20158;51.436;-2.742;2022-08-19T02:28:38;21.80;70.50
33863;DHT22;20158;51.436;-2.742;2022-08-19T02:31:10;21.80;70.50
33863;DHT22;20158;51.436;-2.742;2022-08-19T02:33:36;21.70;70.50
33863;DHT22;20158;51.436;-2.742;2022-08-19T02:36:04;21.70;70.40
33863;DHT22;20158;51.436;-2.742;2022-08-19T02:38:31;21.70;70.50
33863;DHT22;20158;51.436;-2.742;2022-08-19T02:41:00;21.70;70.50
33863;DHT22;20158;51.436;-2.742;2022-08-19T02:43:28;21.70;70.50
33863;DHT22;20158;51.436;-2.742;2022-08-19T02:45:54;21.70;70.60
33863;DHT22;20158;51.436;-2.742;2022-08-19T02:48:22;21.70;70.60
33863;DHT22;20158;51.436;-2.742;2022-08-19T02:50:50;21.70;70.60
33863;DHT22;20158;51.436;-2.742;2022-08-19T02:53:22;21.70;70.60
33863;DHT22;20158;51.436;-2.742;2022-08-19T02:55:49;21.60;70.40
33863;DHT22;20158;51.436;-2.742;2022-08-19T02:58:19;21.60;70.40
33863;DHT22;20158;51.436;-2.742;2022-08-19T03:00:51;21.60;70.40
33863;DHT22;20158;51.436;-2.742;2022-08-19T03:03:18;21.60;70.40
33863;DHT22;20158;51.436;-2.742;2022-08-19T03:05:45;21.50;70.30
33863;DHT22;20158;51.436;-2.742;2022-08-19T03:08:12;21.50;70.30
33863;DHT22;20158;51.436;-2.742;2022-08-19T03:10:43;21.50;70.30
33863;DHT22;20158;51.436;-2.742;2022-08-19T03:13:11;21.40;70.20
33863;DHT22;20158;51.436;-2.742;2022-08-19T03:15:46;21.40;70.80
33863;DHT22;20158;51.436;-2.742;2022-08-19T03:18:13;21.40;70.40
33863;DHT22;20158;51.436;-2.742;2022-08-19T03:20:44;21.30;70.20
33863;DHT22;20158;51.436;-2.742;2022-08-19T03:23:11;21.30;70.20
33863;DHT22;20158;51.436;-2.742;2022-08-19T03:25:44;21.20;70.10
33863;DHT22;20158;51.436;-2.742;2022-08-19T03:28:11;21.30;70.30
33863;DHT22;20158;51.436;-2.742;2022-08-19T03:30:39;21.20;70.10
33863;DHT22;20158;51.436;-2.742;2022-08-19T03:33:07;21.20;70.10
33863;DHT22;20158;51.436;-2.742;2022-08-19T03:35:33;21.20;70.20
33863;DHT22;20158;51.436;-2.742;2022-08-19T03:38:06;21.10;70.00
33863;DHT22;20158;51.436;-2.742;2022-08-19T03:40:32;21.10;70.00
33863;DHT22;20158;51.436;-2.742;2022-08-19T03:43:00;21.10;70.00
33863;DHT22;20158;51.436;-2.742;2022-08-19T03:45:26;21.10;70.00
33863;DHT22;20158;51.436;-2.742;2022-08-19T03:47:53;21.10;70.10
33863;DHT22;20158;51.436;-2.742;2022-08-19T03:50:19;21.10;70.10
33863;DHT22;20158;51.436;-2.742;2022-08-19T03:52:50;21.10;70.10
33863;DHT22;20158;51.436;-2.742;2022-08-19T03:55:17;21.00;69.90
33863;DHT22;20158;51.436;-2.742;2022-08-19T03:57:43;21.00;69.90
33863;DHT22;20158;51.436;-2.742;2022-08-19T04:00:11;21.00;69.90
33863;DHT22;20158;51.436;-2.742;2022-08-19T04:02:37;21.00;69.90
33863;DHT22;20158;51.436;-2.742;2022-08-19T04:05:03;21.00;69.90
33863;DHT22;20158;51.436;-2.742;2022-08-19T04:07:30;21.00;69.90
33863;DHT22;20158;51.436;-2.742;2022-08-19T04:09:56;21.00;69.90
33863;DHT22;20158;51.436;-2.742;2022-08-19T04:12:24;21.00;70.00
33863;DHT22;20158;51.436;-2.742;2022-08-19T04:14:50;20.90;69.80
33863;DHT22;20158;51.436;-2.742;2022-08-19T04:17:17;20.90;69.80
33863;DHT22;20158;51.436;-2.742;2022-08-19T04:19:42;20.90;70.40
33863;DHT22;20158;51.436;-2.742;2022-08-19T04:22:08;20.90;69.90
33863;DHT22;20158;51.436;-2.742;2022-08-19T04:24:35;20.80;69.70
33863;DHT22;20158;51.436;-2.742;2022-08-19T04:27:01;20.80;69.80
33863;DHT22;20158;51.436;-2.742;2022-08-19T04:29:30;20.70;69.70
33863;DHT22;20158;51.436;-2.742;2022-08-19T04:31:56;20.70;69.70
33863;DHT22;20158;51.436;-2.742;2022-08-19T04:34:25;20.70;69.80
33863;DHT22;20158;51.436;-2.742;2022-08-19T04:36:53;20.60;69.70
33863;DHT22;20158;51.436;-2.742;2022-08-19T04:39:29;20.60;69.80
33863;DHT22;20158;51.436;-2.742;2022-08-19T04:42:15;20.50;69.60
33863;DHT22;20158;51.436;-2.742;2022-08-19T04:45:00;20.50;69.70
33863;DHT22;20158;51.436;-2.742;2022-08-19T04:47:26;20.40;69.50
33863;DHT22;20158;51.436;-2.742;2022-08-19T04:49:52;20.40;69.60
33863;DHT22;20158;51.436;-2.742;2022-08-19T04:52:20;20.30;69.50
33863;DHT22;20158;51.436;-2.742;2022-08-19T04:54:46;20.30;69.60
33863;DHT22;20158;51.436;-2.742;2022-08-19T04:57:12;20.30;69.60
33863;DHT22;20158;51.436;-2.742;2022-08-19T04:59:39;20.20;69.50
33863;DHT22;20158;51.436;-2.742;2022-08-19T05:02:08;20.20;69.60
33863;DHT22;20158;51.436;-2.742;2022-08-19T05:04:34;20.10;69.40
33863;DHT22;20158;51.436;-2.742;2022-08-19T05:07:07;20.10;69.50
33863;DHT22;20158;51.436;-2.742;2022-08-19T05:09:34;20.10;69.50
33863;DHT22;20158;51.436;-2.742;2022-08-19T05:12:00;20.00;69.40
33863;DHT22;20158;51.436;-2.742;2022-08-19T05:14:26;19.90;69.30
33863;DHT22;20158;51.436;-2.742;2022-08-19T05:16:52;19.90;69.30
33863;DHT22;20158;51.436;-2.742;2022-08-19T05:19:17;19.90;69.40
33863;DHT22;20158;51.436;-2.742;2022-08-19T05:22:02;19.90;69.40
33863;DHT22;20158;51.436;-2.742;2022-08-19T05:24:47;19.80;69.30
33863;DHT22;20158;51.436;-2.742;2022-08-19T05:27:13;19.80;69.30
33863;DHT22;20158;51.436;-2.742;2022-08-19T05:29:39;19.70;69.20
33863;DHT22;20158;51.436;-2.742;2022-08-19T05:32:06;19.70;69.30
33863;DHT22;20158;51.436;-2.742;2022-08-19T05:34:37;19.60;69.10
33863;DHT22;20158;51.436;-2.742;2022-08-19T05:37:04;19.60;69.20
33863;DHT22;20158;51.436;-2.742;2022-08-19T05:39:32;19.60;69.20
33863;DHT22;20158;51.436;-2.742;2022-08-19T05:42:01;19.50;69.10
33863;DHT22;20158;51.436;-2.742;2022-08-19T05:44:30;19.50;69.10
33863;DHT22;20158;51.436;-2.742;2022-08-19T05:46:58;19.50;69.10
33863;DHT22;20158;51.436;-2.742;2022-08-19T05:49:25;19.50;69.10
33863;DHT22;20158;51.436;-2.742;2022-08-19T05:51:53;19.50;69.10
33863;DHT22;20158;51.436;-2.742;2022-08-19T05:54:22;19.50;69.10
33863;DHT22;20158;51.436;-2.742;2022-08-19T05:56:50;19.50;69.10
33863;DHT22;20158;51.436;-2.742;2022-08-19T05:59:16;19.50;69.00
33863;DHT22;20158;51.436;-2.742;2022-08-19T06:01:45;19.50;69.00
33863;DHT22;20158;51.436;-2.742;2022-08-19T06:04:13;19.50;69.50
33863;DHT22;20158;51.436;-2.742;2022-08-19T06:06:39;19.60;69.10
33863;DHT22;20158;51.436;-2.742;2022-08-19T06:09:07;19.60;69.00
33863;DHT22;20158;51.436;-2.742;2022-08-19T06:14:08;19.70;69.30
33863;DHT22;20158;51.436;-2.742;2022-08-19T06:16:37;19.90;69.70
33863;DHT22;20158;51.436;-2.742;2022-08-19T06:19:07;20.10;69.80
33863;DHT22;20158;51.436;-2.742;2022-08-19T06:21:34;20.30;69.80
33863;DHT22;20158;51.436;-2.742;2022-08-19T06:24:04;20.50;69.60
33863;DHT22;20158;51.436;-2.742;2022-08-19T06:26:30;20.80;69.60
33863;DHT22;20158;51.436;-2.742;2022-08-19T06:28:57;21.00;69.30
33863;DHT22;20158;51.436;-2.742;2022-08-19T06:31:29;21.30;69.20
33863;DHT22;20158;51.436;-2.742;2022-08-19T06:33:57;21.50;68.80
33863;DHT22;20158;51.436;-2.742;2022-08-19T06:36:38;21.80;68.50
33863;DHT22;20158;51.436;-2.742;2022-08-19T06:39:12;22.10;68.20
33863;DHT22;20158;51.436;-2.742;2022-08-19T06:41:41;22.40;67.80
33863;DHT22;20158;51.436;-2.742;2022-08-19T06:44:17;22.70;67.40
33863;DHT22;20158;51.436;-2.742;2022-08-19T06:46:43;22.70;66.90
33863;DHT22;20158;51.436;-2.742;2022-08-19T06:49:09;22.80;66.90
33863;DHT22;20158;51.436;-2.742;2022-08-19T06:51:43;23.10;66.80
33863;DHT22;20158;51.436;-2.742;2022-08-19T06:54:10;23.50;66.50
33863;DHT22;20158;51.436;-2.742;2022-08-19T06:56:37;23.90;66.10
33863;DHT22;20158;51.436;-2.742;2022-08-19T06:59:13;24.30;65.80
33863;DHT22;20158;51.436;-2.742;2022-08-19T07:01:43;24.60;65.80
33863;DHT22;20158;51.436;-2.742;2022-08-19T07:04:11;24.90;65.00
33863;DHT22;20158;51.436;-2.742;2022-08-19T07:06:37;25.20;64.50
33863;DHT22;20158;51.436;-2.742;2022-08-19T07:09:08;25.50;63.90
33863;DHT22;20158;51.436;-2.742;2022-08-19T07:11:35;25.80;63.10
33863;DHT22;20158;51.436;-2.742;2022-08-19T07:14:02;26.10;62.60
33863;DHT22;20158;51.436;-2.742;2022-08-19T07:16:28;26.40;61.80
33863;DHT22;20158;51.436;-2.742;2022-08-19T07:18:55;26.70;61.00
33863;DHT22;20158;51.436;-2.742;2022-08-19T07:21:25;27.00;60.30
33863;DHT22;20158;51.436;-2.742;2022-08-19T07:23:55;27.30;59.50
33863;DHT22;20158;51.436;-2.742;2022-08-19T07:26:25;27.60;58.90
33863;DHT22;20158;51.436;-2.742;2022-08-19T07:28:51;27.80;58.10
33863;DHT22;20158;51.436;-2.742;2022-08-19T07:31:20;28.10;57.80
33863;DHT22;20158;51.436;-2.742;2022-08-19T07:33:47;28.20;57.30
33863;DHT22;20158;51.436;-2.742;2022-08-19T07:36:18;28.20;57.10
33863;DHT22;20158;51.436;-2.742;2022-08-19T07:38:47;28.20;56.80
33863;DHT22;20158;51.436;-2.742;2022-08-19T07:41:17;28.10;56.80
33863;DHT22;20158;51.436;-2.742;2022-08-19T07:43:44;28.10;56.80
33863;DHT22;20158;51.436;-2.742;2022-08-19T07:46:12;28.10;56.80
33863;DHT22;20158;51.436;-2.742;2022-08-19T07:48:40;28.00;56.70
33863;DHT22;20158;51.436;-2.742;2022-08-19T07:51:07;28.00;56.60
33863;DHT22;20158;51.436;-2.742;2022-08-19T07:53:35;28.00;56.50
33863;DHT22;20158;51.436;-2.742;2022-08-19T07:56:02;27.90;56.40
33863;DHT22;20158;51.436;-2.742;2022-08-19T07:58:34;27.80;56.20
33863;DHT22;20158;51.436;-2.742;2022-08-19T08:01:04;27.80;56.00
33863;DHT22;20158;51.436;-2.742;2022-08-19T08:03:32;27.80;56.00
33863;DHT22;20158;51.436;-2.742;2022-08-19T08:06:16;27.80;55.80
33863;DHT22;20158;51.436;-2.742;2022-08-19T08:09:03;27.90;55.60
33863;DHT22;20158;51.436;-2.742;2022-08-19T08:11:45;28.00;55.20
33863;DHT22;20158;51.436;-2.742;2022-08-19T08:14:24;28.00;54.80
33863;DHT22;20158;51.436;-2.742;2022-08-19T08:16:51;28.00;54.60
33863;DHT22;20158;51.436;-2.742;2022-08-19T08:19:19;28.00;54.70
33863;DHT22;20158;51.436;-2.742;2022-08-19T08:21:47;27.80;54.70
33863;DHT22;20158;51.436;-2.742;2022-08-19T08:24:14;27.60;54.90
33863;DHT22;20158;51.436;-2.742;2022-08-19T08:26:40;27.30;55.20
33863;DHT22;20158;51.436;-2.742;2022-08-19T08:29:07;27.20;55.60
33863;DHT22;20158;51.436;-2.742;2022-08-19T08:31:37;26.90;55.70
33863;DHT22;20158;51.436;-2.742;2022-08-19T08:34:03;26.80;56.10
33863;DHT22;20158;51.436;-2.742;2022-08-19T08:36:29;26.60;56.40
33863;DHT22;20158;51.436;-2.742;2022-08-19T08:38:59;26.40;56.40
33863;DHT22;20158;51.436;-2.742;2022-08-19T08:41:58;26.20;56.50
33863;DHT22;20158;51.436;-2.742;2022-08-19T08:44:34;26.10;56.40
33863;DHT22;20158;51.436;-2.742;2022-08-19T08:47:05;26.00;56.80
33863;DHT22;20158;51.436;-2.742;2022-08-19T08:49:46;25.90;57.00
33863;DHT22;20158;51.436;-2.742;2022-08-19T08:52:26;25.80;57.20
33863;DHT22;20158;51.436;-2.742;2022-08-19T08:54:57;25.70;57.20
33863;DHT22;20158;51.436;-2.742;2022-08-19T08:58:13;25.70;57.30
33863;DHT22;20158;51.436;-2.742;2022-08-19T09:00:44;25.60;57.10
33863;DHT22;20158;51.436;-2.742;2022-08-19T09:03:29;25.60;57.20
33863;DHT22;20158;51.436;-2.742;2022-08-19T09:09:10;25.60;57.00
33863;DHT22;20158;51.436;-2.742;2022-08-19T09:17:00;25.60;56.80
33863;DHT22;20158;51.436;-2.742;2022-08-19T09:19:29;25.60;56.80
33863;DHT22;20158;51.436;-2.742;2022-08-19T09:21:56;25.70;56.60
33863;DHT22;20158;51.436;-2.742;2022-08-19T09:24:22;25.70;56.60
33863;DHT22;20158;51.436;-2.742;2022-08-19T09:26:48;25.80;56.40
33863;DHT22;20158;51.436;-2.742;2022-08-19T09:29:14;25.80;56.20
33863;DHT22;20158;51.436;-2.742;2022-08-19T09:31:40;25.90;56.10
33863;DHT22;20158;51.436;-2.742;2022-08-19T09:34:06;25.90;55.90
33863;DHT22;20158;51.436;-2.742;2022-08-19T09:36:32;26.00;55.80
33863;DHT22;20158;51.436;-2.742;2022-08-19T09:38:59;26.20;55.70
33863;DHT22;20158;51.436;-2.742;2022-08-19T09:41:28;26.40;55.50
33863;DHT22;20158;51.436;-2.742;2022-08-19T09:43:56;26.60;55.20
33863;DHT22;20158;51.436;-2.742;2022-08-19T09:46:24;26.80;54.80
33863;DHT22;20158;51.436;-2.742;2022-08-19T09:48:51;27.00;54.40
33863;DHT22;20158;51.436;-2.742;2022-08-19T09:51:23;27.20;54.20
33863;DHT22;20158;51.436;-2.742;2022-08-19T09:53:52;27.30;53.80
33863;DHT22;20158;51.436;-2.742;2022-08-19T09:56:21;27.40;53.70
33863;DHT22;20158;51.436;-2.742;2022-08-19T09:58:48;27.50;53.60
33863;DHT22;20158;51.436;-2.742;2022-08-19T10:01:23;27.50;53.50
33863;DHT22;20158;51.436;-2.742;2022-08-19T10:03:51;27.30;53.40
33863;DHT22;20158;51.436;-2.742;2022-08-19T10:06:24;27.30;53.60
33863;DHT22;20158;51.436;-2.742;2022-08-19T10:08:52;27.10;53.50
33863;DHT22;20158;51.436;-2.742;2022-08-19T10:11:20;27.00;53.60
33863;DHT22;20158;51.436;-2.742;2022-08-19T10:13:46;26.90;53.70
33863;DHT22;20158;51.436;-2.742;2022-08-19T10:16:16;26.80;53.80
33863;DHT22;20158;51.436;-2.742;2022-08-19T10:18:44;26.90;53.80
33863;DHT22;20158;51.436;-2.742;2022-08-19T10:21:13;27.00;53.70
33863;DHT22;20158;51.436;-2.742;2022-08-19T10:23:43;27.10;53.50
33863;DHT22;20158;51.436;-2.742;2022-08-19T10:26:16;27.30;53.40
33863;DHT22;20158;51.436;-2.742;2022-08-19T10:28:43;27.50;53.10
33863;DHT22;20158;51.436;-2.742;2022-08-19T10:31:15;27.60;52.90
33863;DHT22;20158;51.436;-2.742;2022-08-19T10:33:43;27.70;52.60
33863;DHT22;20158;51.436;-2.742;2022-08-19T10:36:13;27.80;52.40
33863;DHT22;20158;51.436;-2.742;2022-08-19T10:38:44;27.80;52.20
33863;DHT22;20158;51.436;-2.742;2022-08-19T10:41:14;27.80;52.10
33863;DHT22;20158;51.436;-2.742;2022-08-19T10:43:41;27.90;52.10
33863;DHT22;20158;51.436;-2.742;2022-08-19T10:46:09;27.80;52.00
33863;DHT22;20158;51.436;-2.742;2022-08-19T10:48:36;27.80;51.90
33863;DHT22;20158;51.436;-2.742;2022-08-19T10:51:02;27.80;52.00
33863;DHT22;20158;51.436;-2.742;2022-08-19T10:53:47;27.80;51.80
33863;DHT22;20158;51.436;-2.742;2022-08-19T10:56:14;27.80;51.60
33863;DHT22;20158;51.436;-2.742;2022-08-19T10:58:59;27.80;51.30
33863;DHT22;20158;51.436;-2.742;2022-08-19T11:01:26;27.70;51.10
33863;DHT22;20158;51.436;-2.742;2022-08-19T11:03:52;27.70;51.00
33863;DHT22;20158;51.436;-2.742;2022-08-19T11:06:18;27.70;51.00
33863;DHT22;20158;51.436;-2.742;2022-08-19T11:08:45;27.80;50.90
33863;DHT22;20158;51.436;-2.742;2022-08-19T11:11:11;27.80;50.70
33863;DHT22;20158;51.436;-2.742;2022-08-19T11:13:40;27.90;50.70
33863;DHT22;20158;51.436;-2.742;2022-08-19T11:16:09;28.00;50.60
33863;DHT22;20158;51.436;-2.742;2022-08-19T11:18:44;28.10;50.50
33863;DHT22;20158;51.436;-2.742;2022-08-19T11:21:22;28.20;50.30
33863;DHT22;20158;51.436;-2.742;2022-08-19T11:23:50;28.30;50.00
33863;DHT22;20158;51.436;-2.742;2022-08-19T11:26:19;28.40;49.90
33863;DHT22;20158;51.436;-2.742;2022-08-19T11:28:47;28.50;49.70
33863;DHT22;20158;51.436;-2.742;2022-08-19T11:31:17;28.70;49.60
33863;DHT22;20158;51.436;-2.742;2022-08-19T11:33:43;29.00;49.50
33863;DHT22;20158;51.436;-2.742;2022-08-19T11:36:09;29.30;49.10
33863;DHT22;20158;51.436;-2.742;2022-08-19T11:38:36;29.50;48.70
33863;DHT22;20158;51.436;-2.742;2022-08-19T11:41:05;29.70;48.50
33863;DHT22;20158;51.436;-2.742;2022-08-19T11:43:34;29.80;48.30
33863;DHT22;20158;51.436;-2.742;2022-08-19T11:46:05;29.90;48.10
33863;DHT22;20158;51.436;-2.742;2022-08-19T11:48:32;29.90;48.00
33863;DHT22;20158;51.436;-2.742;2022-08-19T11:50:58;29.90;48.10
33863;DHT22;20158;51.436;-2.742;2022-08-19T11:53:25;29.90;48.00
33863;DHT22;20158;51.436;-2.742;2022-08-19T11:55:53;29.90;47.90
33863;DHT22;20158;51.436;-2.742;2022-08-19T11:58:22;30.00;47.90
33863;DHT22;20158;51.436;-2.742;2022-08-19T12:00:48;30.00;47.90
33863;DHT22;20158;51.436;-2.742;2022-08-19T12:03:15;30.00;47.80
33863;DHT22;20158;51.436;-2.742;2022-08-19T12:05:42;30.00;47.70
33863;DHT22;20158;51.436;-2.742;2022-08-19T12:08:08;30.10;47.50
33863;DHT22;20158;51.436;-2.742;2022-08-19T12:10:35;30.20;47.30
33863;DHT22;20158;51.436;-2.742;2022-08-19T12:13:01;30.40;47.30
33863;DHT22;20158;51.436;-2.742;2022-08-19T12:15:28;30.50;47.10
33863;DHT22;20158;51.436;-2.742;2022-08-19T12:17:56;30.70;46.90
33863;DHT22;20158;51.436;-2.742;2022-08-19T12:20:24;30.80;46.70
33863;DHT22;20158;51.436;-2.742;2022-08-19T12:22:50;30.80;46.50
33863;DHT22;20158;51.436;-2.742;2022-08-19T12:25:16;30.90;46.50
33863;DHT22;20158;51.436;-2.742;2022-08-19T12:27:43;30.90;46.30
33863;DHT22;20158;51.436;-2.742;2022-08-19T12:30:12;30.80;46.30
33863;DHT22;20158;51.436;-2.742;2022-08-19T12:32:39;30.80;46.20
33863;DHT22;20158;51.436;-2.742;2022-08-19T12:35:06;30.80;46.30
33863;DHT22;20158;51.436;-2.742;2022-08-19T12:37:34;30.70;46.10
33863;DHT22;20158;51.436;-2.742;2022-08-19T12:40:00;30.70;46.20
33863;DHT22;20158;51.436;-2.742;2022-08-19T12:42:28;30.60;46.10
33863;DHT22;20158;51.436;-2.742;2022-08-19T12:44:56;30.70;45.90
33863;DHT22;20158;51.436;-2.742;2022-08-19T12:47:22;30.70;45.90
33863;DHT22;20158;51.436;-2.742;2022-08-19T12:49:48;30.70;45.90
33863;DHT22;20158;51.436;-2.742;2022-08-19T12:52:15;30.70;45.90
33863;DHT22;20158;51.436;-2.742;2022-08-19T12:54:42;30.80;46.00
33863;DHT22;20158;51.436;-2.742;2022-08-19T12:57:10;30.90;45.90
33863;DHT22;20158;51.436;-2.742;2022-08-19T12:59:36;31.00;45.80
33863;DHT22;20158;51.436;-2.742;2022-08-19T13:02:04;31.10;45.60
33863;DHT22;20158;51.436;-2.742;2022-08-19T13:04:32;31.20;45.40
33863;DHT22;20158;51.436;-2.742;2022-08-19T13:07:00;31.30;45.20
33863;DHT22;20158;51.436;-2.742;2022-08-19T13:09:26;31.40;45.00
33863;DHT22;20158;51.436;-2.742;2022-08-19T13:11:52;31.40;44.80
33863;DHT22;20158;51.436;-2.742;2022-08-19T13:14:18;31.50;44.70
33863;DHT22;20158;51.436;-2.742;2022-08-19T13:16:44;31.60;44.60
33863;DHT22;20158;51.436;-2.742;2022-08-19T13:19:10;31.70;44.50
33863;DHT22;20158;51.436;-2.742;2022-08-19T13:21:37;31.70;44.50
33863;DHT22;20158;51.436;-2.742;2022-08-19T13:24:03;31.80;44.40
33863;DHT22;20158;51.436;-2.742;2022-08-19T13:26:29;31.90;44.20
33863;DHT22;20158;51.436;-2.742;2022-08-19T13:28:55;32.00;44.20
33863;DHT22;20158;51.436;-2.742;2022-08-19T13:31:41;32.10;44.60
33863;DHT22;20158;51.436;-2.742;2022-08-19T13:34:33;32.20;43.90
33863;DHT22;20158;51.436;-2.742;2022-08-19T13:37:00;32.30;43.60
33863;DHT22;20158;51.436;-2.742;2022-08-19T13:39:29;32.40;43.60
33863;DHT22;20158;51.436;-2.742;2022-08-19T13:41:55;32.50;43.40
33863;DHT22;20158;51.436;-2.742;2022-08-19T13:44:21;32.60;43.20
33863;DHT22;20158;51.436;-2.742;2022-08-19T13:46:48;32.80;43.10
33863;DHT22;20158;51.436;-2.742;2022-08-19T13:49:18;32.90;42.80
33863;DHT22;20158;51.436;-2.742;2022-08-19T13:51:44;33.00;42.70
33863;DHT22;20158;51.436;-2.742;2022-08-19T13:54:11;33.10;42.40
33863;DHT22;20158;51.436;-2.742;2022-08-19T13:56:44;33.30;42.20
33863;DHT22;20158;51.436;-2.742;2022-08-19T13:59:11;33.40;41.90
33863;DHT22;20158;51.436;-2.742;2022-08-19T14:01:38;33.50;41.80
33863;DHT22;20158;51.436;-2.742;2022-08-19T14:04:04;33.70;41.60
33863;DHT22;20158;51.436;-2.742;2022-08-19T14:06:31;33.90;41.50
33863;DHT22;20158;51.436;-2.742;2022-08-19T14:08:58;34.00;41.30
33863;DHT22;20158;51.436;-2.742;2022-08-19T14:11:25;34.10;41.00
33863;DHT22;20158;51.436;-2.742;2022-08-19T14:13:51;34.30;40.90
33863;DHT22;20158;51.436;-2.742;2022-08-19T14:16:17;34.50;40.70
33863;DHT22;20158;51.436;-2.742;2022-08-19T14:18:43;34.70;40.50
33863;DHT22;20158;51.436;-2.742;2022-08-19T14:21:19;34.90;40.30
33863;DHT22;20158;51.436;-2.742;2022-08-19T14:23:46;35.00;39.90
33863;DHT22;20158;51.436;-2.742;2022-08-19T14:26:14;35.20;39.80
33863;DHT22;20158;51.436;-2.742;2022-08-19T14:28:42;35.40;39.60
33863;DHT22;20158;51.436;-2.742;2022-08-19T14:31:10;35.50;39.50
33863;DHT22;20158;51.436;-2.742;2022-08-19T14:33:36;35.60;39.40
33863;DHT22;20158;51.436;-2.742;2022-08-19T14:36:03;35.70;39.20
33863;DHT22;20158;51.436;-2.742;2022-08-19T14:38:29;35.80;39.00
33863;DHT22;20158;51.436;-2.742;2022-08-19T14:41:10;35.90;38.90
33863;DHT22;20158;51.436;-2.742;2022-08-19T14:43:37;36.00;38.70
33863;DHT22;20158;51.436;-2.742;2022-08-19T14:46:04;36.10;38.80
33863;DHT22;20158;51.436;-2.742;2022-08-19T14:48:30;36.10;38.60
33863;DHT22;20158;51.436;-2.742;2022-08-19T14:50:56;36.20;38.50
33863;DHT22;20158;51.436;-2.742;2022-08-19T14:53:22;36.20;38.30
33863;DHT22;20158;51.436;-2.742;2022-08-19T14:55:48;36.30;38.40
33863;DHT22;20158;51.436;-2.742;2022-08-19T14:58:16;36.30;38.30
33863;DHT22;20158;51.436;-2.742;2022-08-19T15:00:43;36.30;38.10
33863;DHT22;20158;51.436;-2.742;2022-08-19T15:03:08;36.40;38.00
33863;DHT22;20158;51.436;-2.742;2022-08-19T15:05:35;36.40;37.90
33863;DHT22;20158;51.436;-2.742;2022-08-19T15:08:04;36.50;38.00
33863;DHT22;20158;51.436;-2.742;2022-08-19T15:10:30;36.50;37.80
33863;DHT22;20158;51.436;-2.742;2022-08-19T15:12:56;36.50;37.70
33863;DHT22;20158;51.436;-2.742;2022-08-19T15:15:22;36.60;37.60
33863;DHT22;20158;51.436;-2.742;2022-08-19T15:17:48;36.60;37.50
33863;DHT22;20158;51.436;-2.742;2022-08-19T15:20:18;36.70;37.40
33863;DHT22;20158;51.436;-2.742;2022-08-19T15:22:44;36.70;37.30
33863;DHT22;20158;51.436;-2.742;2022-08-19T15:25:13;36.80;37.40
33863;DHT22;20158;51.436;-2.742;2022-08-19T15:27:39;36.80;37.30
33863;DHT22;20158;51.436;-2.742;2022-08-19T15:30:06;36.90;37.40
33863;DHT22;20158;51.436;-2.742;2022-08-19T15:32:33;36.90;37.20
33863;DHT22;20158;51.436;-2.742;2022-08-19T15:35:00;36.80;37.10